sensor_id;sensor_type;location;lat;lon;timestamp;P1;durP1;ratioP1;P2;durP2;ratioP2
19828;SDS011;10075;50.924;4.396;2022-11-20T00:01:28;47.83;;;26.03;;
19828;SDS011;10075;50.924;4.396;2022-11-20T00:03:56;40.87;;;24.83;;
19828;SDS011;10075;50.924;4.396;2022-11-20T00:06:24;43.00;;;24.53;;
19828;SDS011;10075;50.924;4.396;2022-11-20T00:08:53;37.17;;;23.50;;
19828;SDS011;10075;50.924;4.396;2022-11-20T00:11:21;36.13;;;22.57;;
19828;SDS011;10075;50.924;4.396;2022-11-20T00:13:50;36.40;;;23.50;;
19828;SDS011;10075;50.924;4.396;2022-11-20T00:16:20;41.40;;;25.83;;
19828;SDS011;10075;50.924;4.396;2022-11-20T00:18:51;40.20;;;25.50;;
19828;SDS011;10075;50.924;4.396;2022-11-20T00:21:19;38.43;;;23.40;;
19828;SDS011;10075;50.924;4.396;2022-11-20T00:23:48;38.70;;;24.70;;
19828;SDS011;10075;50.924;4.396;2022-11-20T00:26:17;39.27;;;24.70;;
19828;SDS011;10075;50.924;4.396;2022-11-20T00:28:48;44.93;;;25.40;;
19828;SDS011;10075;50.924;4.396;2022-11-20T00:31:16;41.50;;;25.07;;
19828;SDS011;10075;50.924;4.396;2022-11-20T00:33:44;45.40;;;27.40;;
19828;SDS011;10075;50.924;4.396;2022-11-20T00:36:13;46.40;;;26.43;;
19828;SDS011;10075;50.924;4.396;2022-11-20T00:38:41;49.53;;;27.63;;
19828;SDS011;10075;50.924;4.396;2022-11-20T00:41:09;47.50;;;28.83;;
19828;SDS011;10075;50.924;4.396;2022-11-20T00:43:38;46.33;;;26.70;;
19828;SDS011;10075;50.924;4.396;2022-11-20T00:46:06;57.13;;;28.17;;
19828;SDS011;10075;50.924;4.396;2022-11-20T00:48:34;49.27;;;27.37;;
19828;SDS011;10075;50.924;4.396;2022-11-20T00:51:01;49.93;;;28.53;;
19828;SDS011;10075;50.924;4.396;2022-11-20T00:53:30;45.23;;;26.77;;
19828;SDS011;10075;50.924;4.396;2022-11-20T00:55:58;43.63;;;28.50;;
19828;SDS011;10075;50.924;4.396;2022-11-20T00:58:28;44.57;;;26.30;;
19828;SDS011;10075;50.924;4.396;2022-11-20T01:00:59;50.73;;;28.47;;
19828;SDS011;10075;50.924;4.396;2022-11-20T01:03:27;46.93;;;27.60;;
19828;SDS011;10075;50.924;4.396;2022-11-20T01:05:58;50.43;;;27.70;;
19828;SDS011;10075;50.924;4.396;2022-11-20T01:08:30;46.23;;;25.73;;
19828;SDS011;10075;50.924;4.396;2022-11-20T01:11:00;41.97;;;25.67;;
19828;SDS011;10075;50.924;4.396;2022-11-20T01:13:29;46.73;;;25.47;;
19828;SDS011;10075;50.924;4.396;2022-11-20T01:16:06;44.57;;;25.57;;
19828;SDS011;10075;50.924;4.396;2022-11-20T01:18:35;43.37;;;27.33;;
19828;SDS011;10075;50.924;4.396;2022-11-20T01:21:04;50.33;;;28.87;;
19828;SDS011;10075;50.924;4.396;2022-11-20T01:23:36;51.33;;;27.90;;
19828;SDS011;10075;50.924;4.396;2022-11-20T01:26:04;49.60;;;28.83;;
19828;SDS011;10075;50.924;4.396;2022-11-20T01:28:33;53.30;;;28.37;;
19828;SDS011;10075;50.924;4.396;2022-11-20T01:31:00;42.53;;;25.97;;
19828;SDS011;10075;50.924;4.396;2022-11-20T01:33:27;56.10;;;27.57;;
19828;SDS011;10075;50.924;4.396;2022-11-20T01:36:02;46.00;;;26.23;;
19828;SDS011;10075;50.924;4.396;2022-11-20T01:38:31;50.20;;;27.93;;
19828;SDS011;10075;50.924;4.396;2022-11-20T01:40:59;47.00;;;28.23;;
19828;SDS011;10075;50.924;4.396;2022-11-20T01:43:26;44.23;;;26.70;;
19828;SDS011;10075;50.924;4.396;2022-11-20T01:45:59;53.90;;;28.77;;
19828;SDS011;10075;50.924;4.396;2022-11-20T01:48:32;48.43;;;28.47;;
19828;SDS011;10075;50.924;4.396;2022-11-20T01:51:02;49.83;;;26.87;;
19828;SDS011;10075;50.924;4.396;2022-11-20T01:53:33;50.53;;;28.37;;
19828;SDS011;10075;50.924;4.396;2022-11-20T01:56:05;50.43;;;30.60;;
19828;SDS011;10075;50.924;4.396;2022-11-20T01:58:35;52.17;;;29.50;;
19828;SDS011;10075;50.924;4.396;2022-11-20T02:01:07;53.30;;;30.30;;
19828;SDS011;10075;50.924;4.396;2022-11-20T02:03:35;47.77;;;29.73;;
19828;SDS011;10075;50.924;4.396;2022-11-20T02:06:04;49.60;;;29.50;;
19828;SDS011;10075;50.924;4.396;2022-11-20T02:08:36;45.70;;;28.43;;
19828;SDS011;10075;50.924;4.396;2022-11-20T02:11:06;53.07;;;29.17;;
19828;SDS011;10075;50.924;4.396;2022-11-20T02:13:33;54.03;;;30.77;;
19828;SDS011;10075;50.924;4.396;2022-11-20T02:16:10;51.10;;;30.53;;
19828;SDS011;10075;50.924;4.396;2022-11-20T02:18:42;52.80;;;28.67;;
19828;SDS011;10075;50.924;4.396;2022-11-20T02:21:13;47.47;;;28.93;;
19828;SDS011;10075;50.924;4.396;2022-11-20T02:23:56;48.93;;;28.23;;
19828;SDS011;10075;50.924;4.396;2022-11-20T02:26:33;53.70;;;30.23;;
19828;SDS011;10075;50.924;4.396;2022-11-20T02:29:04;62.47;;;30.47;;
19828;SDS011;10075;50.924;4.396;2022-11-20T02:31:37;53.43;;;28.93;;
19828;SDS011;10075;50.924;4.396;2022-11-20T02:34:06;49.33;;;27.37;;
19828;SDS011;10075;50.924;4.396;2022-11-20T02:36:34;48.27;;;26.83;;
19828;SDS011;10075;50.924;4.396;2022-11-20T02:39:04;48.20;;;26.47;;
19828;SDS011;10075;50.924;4.396;2022-11-20T02:41:32;44.30;;;27.37;;
19828;SDS011;10075;50.924;4.396;2022-11-20T02:44:00;51.70;;;27.17;;
19828;SDS011;10075;50.924;4.396;2022-11-20T02:46:28;59.70;;;29.90;;
19828;SDS011;10075;50.924;4.396;2022-11-20T02:48:54;53.47;;;30.30;;
19828;SDS011;10075;50.924;4.396;2022-11-20T02:51:22;54.43;;;30.10;;
19828;SDS011;10075;50.924;4.396;2022-11-20T02:53:49;49.43;;;29.70;;
19828;SDS011;10075;50.924;4.396;2022-11-20T02:56:18;55.43;;;31.97;;
19828;SDS011;10075;50.924;4.396;2022-11-20T02:58:45;59.23;;;32.30;;
19828;SDS011;10075;50.924;4.396;2022-11-20T03:01:12;54.30;;;30.63;;
19828;SDS011;10075;50.924;4.396;2022-11-20T03:03:39;51.13;;;30.23;;
19828;SDS011;10075;50.924;4.396;2022-11-20T03:06:06;53.37;;;29.70;;
19828;SDS011;10075;50.924;4.396;2022-11-20T03:08:34;51.20;;;29.63;;
19828;SDS011;10075;50.924;4.396;2022-11-20T03:11:02;52.77;;;31.03;;
19828;SDS011;10075;50.924;4.396;2022-11-20T03:13:32;54.77;;;28.83;;
19828;SDS011;10075;50.924;4.396;2022-11-20T03:16:04;55.10;;;29.77;;
19828;SDS011;10075;50.924;4.396;2022-11-20T03:18:35;49.17;;;28.30;;
19828;SDS011;10075;50.924;4.396;2022-11-20T03:21:02;46.53;;;25.80;;
19828;SDS011;10075;50.924;4.396;2022-11-20T03:23:30;41.63;;;23.93;;
19828;SDS011;10075;50.924;4.396;2022-11-20T03:26:07;42.50;;;25.53;;
19828;SDS011;10075;50.924;4.396;2022-11-20T03:28:37;46.87;;;26.00;;
19828;SDS011;10075;50.924;4.396;2022-11-20T03:31:05;44.10;;;24.90;;
19828;SDS011;10075;50.924;4.396;2022-11-20T03:33:33;44.10;;;25.20;;
19828;SDS011;10075;50.924;4.396;2022-11-20T03:36:00;51.70;;;26.57;;
19828;SDS011;10075;50.924;4.396;2022-11-20T03:38:29;49.00;;;28.27;;
19828;SDS011;10075;50.924;4.396;2022-11-20T03:40:58;49.17;;;27.00;;
19828;SDS011;10075;50.924;4.396;2022-11-20T03:43:25;44.90;;;25.13;;
19828;SDS011;10075;50.924;4.396;2022-11-20T03:45:54;46.47;;;25.87;;
19828;SDS011;10075;50.924;4.396;2022-11-20T03:48:21;50.43;;;27.10;;
19828;SDS011;10075;50.924;4.396;2022-11-20T03:50:48;50.47;;;26.00;;
19828;SDS011;10075;50.924;4.396;2022-11-20T03:53:15;42.80;;;25.03;;
19828;SDS011;10075;50.924;4.396;2022-11-20T03:55:42;46.03;;;25.67;;
19828;SDS011;10075;50.924;4.396;2022-11-20T03:58:09;50.37;;;26.23;;
19828;SDS011;10075;50.924;4.396;2022-11-20T04:00:38;47.67;;;25.57;;
19828;SDS011;10075;50.924;4.396;2022-11-20T04:03:06;45.53;;;25.80;;
19828;SDS011;10075;50.924;4.396;2022-11-20T04:05:33;48.70;;;25.80;;
19828;SDS011;10075;50.924;4.396;2022-11-20T04:08:00;45.60;;;25.93;;
19828;SDS011;10075;50.924;4.396;2022-11-20T04:10:28;46.47;;;25.77;;
19828;SDS011;10075;50.924;4.396;2022-11-20T04:12:55;49.40;;;26.17;;
19828;SDS011;10075;50.924;4.396;2022-11-20T04:15:22;47.73;;;26.33;;
19828;SDS011;10075;50.924;4.396;2022-11-20T04:17:49;47.63;;;25.93;;
19828;SDS011;10075;50.924;4.396;2022-11-20T04:20:17;42.40;;;25.20;;
19828;SDS011;10075;50.924;4.396;2022-11-20T04:22:44;48.53;;;26.30;;
19828;SDS011;10075;50.924;4.396;2022-11-20T04:25:11;44.53;;;24.43;;
19828;SDS011;10075;50.924;4.396;2022-11-20T04:27:38;46.03;;;25.00;;
19828;SDS011;10075;50.924;4.396;2022-11-20T04:30:05;42.17;;;24.60;;
19828;SDS011;10075;50.924;4.396;2022-11-20T04:32:33;47.80;;;26.07;;
19828;SDS011;10075;50.924;4.396;2022-11-20T04:35:00;42.50;;;24.57;;
19828;SDS011;10075;50.924;4.396;2022-11-20T04:37:28;44.73;;;25.20;;
19828;SDS011;10075;50.924;4.396;2022-11-20T04:39:55;42.97;;;22.93;;
19828;SDS011;10075;50.924;4.396;2022-11-20T04:42:22;45.57;;;25.07;;
19828;SDS011;10075;50.924;4.396;2022-11-20T04:44:55;45.27;;;25.10;;
19828;SDS011;10075;50.924;4.396;2022-11-20T04:47:22;48.50;;;25.23;;
19828;SDS011;10075;50.924;4.396;2022-11-20T04:49:49;43.73;;;24.73;;
19828;SDS011;10075;50.924;4.396;2022-11-20T04:52:16;47.03;;;25.70;;
19828;SDS011;10075;50.924;4.396;2022-11-20T04:54:45;47.37;;;24.70;;
19828;SDS011;10075;50.924;4.396;2022-11-20T04:57:12;47.10;;;26.37;;
19828;SDS011;10075;50.924;4.396;2022-11-20T04:59:40;46.47;;;25.13;;
19828;SDS011;10075;50.924;4.396;2022-11-20T05:02:07;43.13;;;23.27;;
19828;SDS011;10075;50.924;4.396;2022-11-20T05:04:35;45.73;;;25.33;;
19828;SDS011;10075;50.924;4.396;2022-11-20T05:07:02;47.00;;;25.20;;
19828;SDS011;10075;50.924;4.396;2022-11-20T05:09:29;45.33;;;24.70;;
19828;SDS011;10075;50.924;4.396;2022-11-20T05:11:58;43.07;;;24.70;;
19828;SDS011;10075;50.924;4.396;2022-11-20T05:14:25;44.33;;;23.80;;
19828;SDS011;10075;50.924;4.396;2022-11-20T05:16:52;39.20;;;23.60;;
19828;SDS011;10075;50.924;4.396;2022-11-20T05:19:18;46.50;;;25.20;;
19828;SDS011;10075;50.924;4.396;2022-11-20T05:21:45;51.83;;;25.37;;
19828;SDS011;10075;50.924;4.396;2022-11-20T05:24:12;50.53;;;25.53;;
19828;SDS011;10075;50.924;4.396;2022-11-20T05:26:39;54.57;;;27.97;;
19828;SDS011;10075;50.924;4.396;2022-11-20T05:29:09;51.23;;;26.80;;
19828;SDS011;10075;50.924;4.396;2022-11-20T05:31:36;50.33;;;25.50;;
19828;SDS011;10075;50.924;4.396;2022-11-20T05:34:05;45.00;;;24.97;;
19828;SDS011;10075;50.924;4.396;2022-11-20T05:36:33;47.53;;;25.57;;
19828;SDS011;10075;50.924;4.396;2022-11-20T05:39:00;52.30;;;25.83;;
19828;SDS011;10075;50.924;4.396;2022-11-20T05:41:27;47.37;;;24.50;;
19828;SDS011;10075;50.924;4.396;2022-11-20T05:43:55;43.40;;;25.23;;
19828;SDS011;10075;50.924;4.396;2022-11-20T05:46:24;53.70;;;26.60;;
19828;SDS011;10075;50.924;4.396;2022-11-20T05:48:52;46.27;;;23.80;;
19828;SDS011;10075;50.924;4.396;2022-11-20T05:51:19;53.27;;;27.77;;
19828;SDS011;10075;50.924;4.396;2022-11-20T05:53:46;64.70;;;29.13;;
19828;SDS011;10075;50.924;4.396;2022-11-20T05:56:14;65.10;;;29.53;;
19828;SDS011;10075;50.924;4.396;2022-11-20T05:58:42;62.37;;;28.93;;
19828;SDS011;10075;50.924;4.396;2022-11-20T06:01:11;57.87;;;27.23;;
19828;SDS011;10075;50.924;4.396;2022-11-20T06:03:44;64.00;;;28.83;;
19828;SDS011;10075;50.924;4.396;2022-11-20T06:06:13;71.23;;;30.90;;
19828;SDS011;10075;50.924;4.396;2022-11-20T06:08:40;64.73;;;29.77;;
19828;SDS011;10075;50.924;4.396;2022-11-20T06:11:08;66.60;;;30.17;;
19828;SDS011;10075;50.924;4.396;2022-11-20T06:13:37;68.63;;;31.17;;
19828;SDS011;10075;50.924;4.396;2022-11-20T06:16:05;64.40;;;30.07;;
19828;SDS011;10075;50.924;4.396;2022-11-20T06:18:32;76.90;;;31.67;;
19828;SDS011;10075;50.924;4.396;2022-11-20T06:21:01;71.03;;;30.93;;
19828;SDS011;10075;50.924;4.396;2022-11-20T06:23:30;71.73;;;31.30;;
19828;SDS011;10075;50.924;4.396;2022-11-20T06:26:00;67.23;;;31.17;;
19828;SDS011;10075;50.924;4.396;2022-11-20T06:28:28;55.83;;;29.13;;
19828;SDS011;10075;50.924;4.396;2022-11-20T06:30:55;58.10;;;28.53;;
19828;SDS011;10075;50.924;4.396;2022-11-20T06:33:22;57.80;;;28.20;;
19828;SDS011;10075;50.924;4.396;2022-11-20T06:35:49;64.00;;;29.73;;
19828;SDS011;10075;50.924;4.396;2022-11-20T06:38:18;69.67;;;30.37;;
19828;SDS011;10075;50.924;4.396;2022-11-20T06:40:45;62.23;;;29.23;;
19828;SDS011;10075;50.924;4.396;2022-11-20T06:43:12;67.93;;;29.93;;
19828;SDS011;10075;50.924;4.396;2022-11-20T06:45:39;62.37;;;30.40;;
19828;SDS011;10075;50.924;4.396;2022-11-20T06:48:06;63.07;;;29.80;;
19828;SDS011;10075;50.924;4.396;2022-11-20T06:50:34;66.07;;;30.87;;
19828;SDS011;10075;50.924;4.396;2022-11-20T06:53:02;63.43;;;30.00;;
19828;SDS011;10075;50.924;4.396;2022-11-20T06:55:31;60.97;;;28.93;;
19828;SDS011;10075;50.924;4.396;2022-11-20T06:57:58;60.00;;;29.20;;
19828;SDS011;10075;50.924;4.396;2022-11-20T07:00:25;56.13;;;27.60;;
19828;SDS011;10075;50.924;4.396;2022-11-20T07:02:52;51.17;;;26.40;;
19828;SDS011;10075;50.924;4.396;2022-11-20T07:05:19;61.07;;;28.47;;
19828;SDS011;10075;50.924;4.396;2022-11-20T07:07:46;65.57;;;29.60;;
19828;SDS011;10075;50.924;4.396;2022-11-20T07:10:13;68.97;;;30.07;;
19828;SDS011;10075;50.924;4.396;2022-11-20T07:12:41;67.53;;;30.67;;
19828;SDS011;10075;50.924;4.396;2022-11-20T07:15:08;68.43;;;29.60;;
19828;SDS011;10075;50.924;4.396;2022-11-20T07:17:35;70.03;;;29.57;;
19828;SDS011;10075;50.924;4.396;2022-11-20T07:20:02;65.47;;;29.83;;
19828;SDS011;10075;50.924;4.396;2022-11-20T07:22:29;67.77;;;30.87;;
19828;SDS011;10075;50.924;4.396;2022-11-20T07:24:56;64.77;;;30.20;;
19828;SDS011;10075;50.924;4.396;2022-11-20T07:27:23;62.20;;;28.63;;
19828;SDS011;10075;50.924;4.396;2022-11-20T07:29:51;51.27;;;27.57;;
19828;SDS011;10075;50.924;4.396;2022-11-20T07:32:18;79.70;;;30.87;;
19828;SDS011;10075;50.924;4.396;2022-11-20T07:34:45;65.97;;;30.40;;
19828;SDS011;10075;50.924;4.396;2022-11-20T07:37:12;69.27;;;31.43;;
19828;SDS011;10075;50.924;4.396;2022-11-20T07:39:39;62.97;;;29.90;;
19828;SDS011;10075;50.924;4.396;2022-11-20T07:42:06;72.23;;;32.43;;
19828;SDS011;10075;50.924;4.396;2022-11-20T07:44:34;66.80;;;31.03;;
19828;SDS011;10075;50.924;4.396;2022-11-20T07:47:03;67.63;;;29.83;;
19828;SDS011;10075;50.924;4.396;2022-11-20T07:49:30;71.27;;;31.30;;
19828;SDS011;10075;50.924;4.396;2022-11-20T07:51:58;62.87;;;27.73;;
19828;SDS011;10075;50.924;4.396;2022-11-20T07:54:25;79.50;;;33.57;;
19828;SDS011;10075;50.924;4.396;2022-11-20T07:56:52;67.87;;;33.33;;
19828;SDS011;10075;50.924;4.396;2022-11-20T07:59:20;67.47;;;32.67;;
19828;SDS011;10075;50.924;4.396;2022-11-20T08:01:47;65.33;;;30.53;;
19828;SDS011;10075;50.924;4.396;2022-11-20T08:04:16;60.43;;;29.77;;
19828;SDS011;10075;50.924;4.396;2022-11-20T08:06:43;80.97;;;33.17;;
19828;SDS011;10075;50.924;4.396;2022-11-20T08:09:10;80.13;;;33.20;;
19828;SDS011;10075;50.924;4.396;2022-11-20T08:11:37;71.23;;;33.40;;
19828;SDS011;10075;50.924;4.396;2022-11-20T08:14:30;58.17;;;29.87;;
19828;SDS011;10075;50.924;4.396;2022-11-20T08:16:57;68.93;;;31.53;;
19828;SDS011;10075;50.924;4.396;2022-11-20T08:19:25;68.97;;;30.70;;
19828;SDS011;10075;50.924;4.396;2022-11-20T08:21:52;79.57;;;32.83;;
19828;SDS011;10075;50.924;4.396;2022-11-20T08:24:19;84.80;;;33.90;;
19828;SDS011;10075;50.924;4.396;2022-11-20T08:26:46;85.97;;;33.93;;
19828;SDS011;10075;50.924;4.396;2022-11-20T08:29:13;86.13;;;34.53;;
19828;SDS011;10075;50.924;4.396;2022-11-20T08:31:41;86.27;;;33.87;;
19828;SDS011;10075;50.924;4.396;2022-11-20T08:34:08;96.43;;;37.47;;
19828;SDS011;10075;50.924;4.396;2022-11-20T08:36:36;94.30;;;37.23;;
19828;SDS011;10075;50.924;4.396;2022-11-20T08:39:04;94.63;;;34.97;;
19828;SDS011;10075;50.924;4.396;2022-11-20T08:41:30;93.10;;;34.97;;
19828;SDS011;10075;50.924;4.396;2022-11-20T08:43:58;105.17;;;38.07;;
19828;SDS011;10075;50.924;4.396;2022-11-20T08:46:27;97.77;;;35.57;;
19828;SDS011;10075;50.924;4.396;2022-11-20T08:48:58;108.07;;;37.93;;
19828;SDS011;10075;50.924;4.396;2022-11-20T08:51:25;93.40;;;35.80;;
19828;SDS011;10075;50.924;4.396;2022-11-20T08:53:53;103.40;;;37.23;;
19828;SDS011;10075;50.924;4.396;2022-11-20T08:56:20;81.90;;;32.80;;
19828;SDS011;10075;50.924;4.396;2022-11-20T08:58:49;87.43;;;35.87;;
19828;SDS011;10075;50.924;4.396;2022-11-20T09:01:17;87.73;;;33.73;;
19828;SDS011;10075;50.924;4.396;2022-11-20T09:03:45;71.67;;;31.10;;
19828;SDS011;10075;50.924;4.396;2022-11-20T09:06:12;84.33;;;32.40;;
19828;SDS011;10075;50.924;4.396;2022-11-20T09:08:39;81.83;;;31.33;;
19828;SDS011;10075;50.924;4.396;2022-11-20T09:11:08;90.10;;;31.80;;
19828;SDS011;10075;50.924;4.396;2022-11-20T09:13:36;74.83;;;29.27;;
19828;SDS011;10075;50.924;4.396;2022-11-20T09:16:03;64.93;;;28.37;;
19828;SDS011;10075;50.924;4.396;2022-11-20T09:18:33;73.10;;;29.43;;
19828;SDS011;10075;50.924;4.396;2022-11-20T09:21:04;70.47;;;30.20;;
19828;SDS011;10075;50.924;4.396;2022-11-20T09:23:33;65.50;;;28.33;;
19828;SDS011;10075;50.924;4.396;2022-11-20T09:26:02;70.47;;;28.30;;
19828;SDS011;10075;50.924;4.396;2022-11-20T09:28:31;65.97;;;28.67;;
19828;SDS011;10075;50.924;4.396;2022-11-20T09:30:58;70.13;;;29.13;;
19828;SDS011;10075;50.924;4.396;2022-11-20T09:33:26;61.17;;;27.20;;
19828;SDS011;10075;50.924;4.396;2022-11-20T09:35:53;62.53;;;26.03;;
19828;SDS011;10075;50.924;4.396;2022-11-20T09:38:20;64.90;;;27.27;;
19828;SDS011;10075;50.924;4.396;2022-11-20T09:40:51;62.20;;;28.23;;
19828;SDS011;10075;50.924;4.396;2022-11-20T09:43:24;55.87;;;25.20;;
19828;SDS011;10075;50.924;4.396;2022-11-20T09:46:08;61.00;;;26.60;;
19828;SDS011;10075;50.924;4.396;2022-11-20T09:51:34;49.03;;;23.53;;
19828;SDS011;10075;50.924;4.396;2022-11-20T09:54:10;55.83;;;25.07;;
19828;SDS011;10075;50.924;4.396;2022-11-20T09:56:44;52.73;;;26.23;;
19828;SDS011;10075;50.924;4.396;2022-11-20T09:59:18;43.50;;;24.20;;
19828;SDS011;10075;50.924;4.396;2022-11-20T10:01:55;49.37;;;24.90;;
19828;SDS011;10075;50.924;4.396;2022-11-20T10:04:23;41.00;;;21.70;;
19828;SDS011;10075;50.924;4.396;2022-11-20T10:06:51;46.37;;;21.37;;
19828;SDS011;10075;50.924;4.396;2022-11-20T10:09:23;38.50;;;20.70;;
19828;SDS011;10075;50.924;4.396;2022-11-20T10:11:58;36.23;;;19.30;;
19828;SDS011;10075;50.924;4.396;2022-11-20T10:14:38;43.07;;;19.30;;
19828;SDS011;10075;50.924;4.396;2022-11-20T10:17:19;35.87;;;19.37;;
19828;SDS011;10075;50.924;4.396;2022-11-20T10:20:01;37.27;;;19.43;;
19828;SDS011;10075;50.924;4.396;2022-11-20T10:22:44;29.33;;;17.27;;
19828;SDS011;10075;50.924;4.396;2022-11-20T10:25:26;29.23;;;17.23;;
19828;SDS011;10075;50.924;4.396;2022-11-20T10:30:57;31.13;;;16.37;;
19828;SDS011;10075;50.924;4.396;2022-11-20T10:33:29;29.43;;;15.53;;
19828;SDS011;10075;50.924;4.396;2022-11-20T10:36:05;28.07;;;14.70;;
19828;SDS011;10075;50.924;4.396;2022-11-20T10:38:40;26.73;;;14.50;;
19828;SDS011;10075;50.924;4.396;2022-11-20T10:41:12;24.80;;;13.67;;
19828;SDS011;10075;50.924;4.396;2022-11-20T10:43:58;21.47;;;11.80;;
19828;SDS011;10075;50.924;4.396;2022-11-20T10:46:32;19.30;;;11.20;;
19828;SDS011;10075;50.924;4.396;2022-11-20T10:49:05;19.57;;;11.13;;
19828;SDS011;10075;50.924;4.396;2022-11-20T10:51:40;18.97;;;9.77;;
19828;SDS011;10075;50.924;4.396;2022-11-20T10:54:19;15.57;;;9.30;;
19828;SDS011;10075;50.924;4.396;2022-11-20T10:56:56;17.17;;;9.73;;
19828;SDS011;10075;50.924;4.396;2022-11-20T10:59:42;15.97;;;8.70;;
19828;SDS011;10075;50.924;4.396;2022-11-20T11:02:41;16.40;;;10.27;;
19828;SDS011;10075;50.924;4.396;2022-11-20T11:05:14;21.70;;;10.67;;
19828;SDS011;10075;50.924;4.396;2022-11-20T11:07:49;27.13;;;13.53;;
19828;SDS011;10075;50.924;4.396;2022-11-20T11:10:20;37.30;;;17.77;;
19828;SDS011;10075;50.924;4.396;2022-11-20T11:12:50;31.47;;;14.00;;
19828;SDS011;10075;50.924;4.396;2022-11-20T11:15:25;29.90;;;14.30;;
19828;SDS011;10075;50.924;4.396;2022-11-20T11:17:55;17.87;;;8.73;;
19828;SDS011;10075;50.924;4.396;2022-11-20T11:20:23;12.47;;;7.13;;
19828;SDS011;10075;50.924;4.396;2022-11-20T11:22:52;12.67;;;6.43;;
19828;SDS011;10075;50.924;4.396;2022-11-20T11:25:22;13.87;;;5.97;;
19828;SDS011;10075;50.924;4.396;2022-11-20T11:27:55;12.33;;;5.70;;
19828;SDS011;10075;50.924;4.396;2022-11-20T11:30:25;10.17;;;5.83;;
19828;SDS011;10075;50.924;4.396;2022-11-20T11:35:42;13.13;;;5.70;;
19828;SDS011;10075;50.924;4.396;2022-11-20T11:38:12;16.30;;;5.83;;
19828;SDS011;10075;50.924;4.396;2022-11-20T11:40:43;12.07;;;4.80;;
19828;SDS011;10075;50.924;4.396;2022-11-20T11:43:16;9.90;;;4.83;;
19828;SDS011;10075;50.924;4.396;2022-11-20T11:45:59;11.40;;;5.27;;
19828;SDS011;10075;50.924;4.396;2022-11-20T11:48:28;12.00;;;5.63;;
19828;SDS011;10075;50.924;4.396;2022-11-20T11:50:55;13.27;;;6.13;;
19828;SDS011;10075;50.924;4.396;2022-11-20T11:53:22;14.97;;;8.10;;
19828;SDS011;10075;50.924;4.396;2022-11-20T11:55:52;18.20;;;9.87;;
19828;SDS011;10075;50.924;4.396;2022-11-20T11:58:34;11.27;;;5.40;;
19828;SDS011;10075;50.924;4.396;2022-11-20T12:01:11;11.90;;;5.30;;
19828;SDS011;10075;50.924;4.396;2022-11-20T12:03:55;14.57;;;5.37;;
19828;SDS011;10075;50.924;4.396;2022-11-20T12:06:28;8.53;;;4.90;;
19828;SDS011;10075;50.924;4.396;2022-11-20T12:08:58;10.67;;;4.63;;
19828;SDS011;10075;50.924;4.396;2022-11-20T12:11:30;9.27;;;4.70;;
19828;SDS011;10075;50.924;4.396;2022-11-20T12:14:02;9.43;;;4.93;;
19828;SDS011;10075;50.924;4.396;2022-11-20T12:16:36;13.50;;;5.67;;
19828;SDS011;10075;50.924;4.396;2022-11-20T12:19:08;24.10;;;9.53;;
19828;SDS011;10075;50.924;4.396;2022-11-20T12:21:40;31.87;;;13.63;;
19828;SDS011;10075;50.924;4.396;2022-11-20T12:24:21;20.10;;;7.73;;
19828;SDS011;10075;50.924;4.396;2022-11-20T12:27:04;10.23;;;4.73;;
19828;SDS011;10075;50.924;4.396;2022-11-20T12:29:48;18.00;;;5.43;;
19828;SDS011;10075;50.924;4.396;2022-11-20T12:35:23;8.50;;;3.67;;
19828;SDS011;10075;50.924;4.396;2022-11-20T12:38:07;10.03;;;4.57;;
19828;SDS011;10075;50.924;4.396;2022-11-20T12:40:53;8.40;;;3.90;;
19828;SDS011;10075;50.924;4.396;2022-11-20T12:43:27;9.37;;;4.60;;
19828;SDS011;10075;50.924;4.396;2022-11-20T12:46:22;9.33;;;4.53;;
19828;SDS011;10075;50.924;4.396;2022-11-20T12:49:10;8.57;;;5.17;;
19828;SDS011;10075;50.924;4.396;2022-11-20T12:51:54;9.43;;;4.60;;
19828;SDS011;10075;50.924;4.396;2022-11-20T12:54:42;9.13;;;5.00;;
19828;SDS011;10075;50.924;4.396;2022-11-20T12:57:21;12.27;;;5.10;;
19828;SDS011;10075;50.924;4.396;2022-11-20T13:00:00;12.80;;;6.17;;
19828;SDS011;10075;50.924;4.396;2022-11-20T13:02:37;12.00;;;5.60;;
19828;SDS011;10075;50.924;4.396;2022-11-20T13:05:19;12.57;;;5.70;;
19828;SDS011;10075;50.924;4.396;2022-11-20T13:07:54;12.13;;;5.50;;
19828;SDS011;10075;50.924;4.396;2022-11-20T13:10:25;10.33;;;5.20;;
19828;SDS011;10075;50.924;4.396;2022-11-20T13:13:00;13.33;;;6.23;;
19828;SDS011;10075;50.924;4.396;2022-11-20T13:15:42;13.10;;;7.03;;
19828;SDS011;10075;50.924;4.396;2022-11-20T13:18:17;16.97;;;7.77;;
19828;SDS011;10075;50.924;4.396;2022-11-20T13:20:45;12.73;;;6.90;;
19828;SDS011;10075;50.924;4.396;2022-11-20T13:23:24;14.80;;;6.57;;
19828;SDS011;10075;50.924;4.396;2022-11-20T13:26:02;15.83;;;6.73;;
19828;SDS011;10075;50.924;4.396;2022-11-20T13:28:30;12.23;;;6.97;;
19828;SDS011;10075;50.924;4.396;2022-11-20T13:30:57;9.30;;;5.60;;
19828;SDS011;10075;50.924;4.396;2022-11-20T13:33:28;11.50;;;5.63;;
19828;SDS011;10075;50.924;4.396;2022-11-20T13:35:57;12.83;;;7.27;;
19828;SDS011;10075;50.924;4.396;2022-11-20T13:38:27;14.70;;;6.70;;
19828;SDS011;10075;50.924;4.396;2022-11-20T13:40:55;15.90;;;6.50;;
19828;SDS011;10075;50.924;4.396;2022-11-20T13:43:27;9.70;;;5.67;;
19828;SDS011;10075;50.924;4.396;2022-11-20T13:46:00;9.80;;;5.60;;
19828;SDS011;10075;50.924;4.396;2022-11-20T13:48:30;13.50;;;7.30;;
19828;SDS011;10075;50.924;4.396;2022-11-20T13:51:08;13.93;;;8.10;;
19828;SDS011;10075;50.924;4.396;2022-11-20T13:53:48;10.07;;;6.23;;
19828;SDS011;10075;50.924;4.396;2022-11-20T13:56:34;12.63;;;7.87;;
19828;SDS011;10075;50.924;4.396;2022-11-20T13:59:16;10.20;;;6.50;;
19828;SDS011;10075;50.924;4.396;2022-11-20T14:01:58;16.47;;;8.30;;
19828;SDS011;10075;50.924;4.396;2022-11-20T14:04:28;18.93;;;8.27;;
19828;SDS011;10075;50.924;4.396;2022-11-20T14:07:01;14.73;;;7.10;;
19828;SDS011;10075;50.924;4.396;2022-11-20T14:09:33;19.23;;;8.60;;
19828;SDS011;10075;50.924;4.396;2022-11-20T14:12:01;9.67;;;4.47;;
19828;SDS011;10075;50.924;4.396;2022-11-20T14:14:28;7.50;;;4.60;;
19828;SDS011;10075;50.924;4.396;2022-11-20T14:17:04;6.27;;;4.00;;
19828;SDS011;10075;50.924;4.396;2022-11-20T14:19:32;6.47;;;3.53;;
19828;SDS011;10075;50.924;4.396;2022-11-20T14:22:16;5.73;;;3.20;;
19828;SDS011;10075;50.924;4.396;2022-11-20T14:24:46;6.57;;;3.97;;
19828;SDS011;10075;50.924;4.396;2022-11-20T14:27:14;8.13;;;3.33;;
19828;SDS011;10075;50.924;4.396;2022-11-20T14:29:42;7.70;;;3.77;;
19828;SDS011;10075;50.924;4.396;2022-11-20T14:32:12;5.30;;;3.17;;
19828;SDS011;10075;50.924;4.396;2022-11-20T14:34:43;4.60;;;3.37;;
19828;SDS011;10075;50.924;4.396;2022-11-20T14:37:17;7.40;;;4.10;;
19828;SDS011;10075;50.924;4.396;2022-11-20T14:39:50;7.97;;;4.17;;
19828;SDS011;10075;50.924;4.396;2022-11-20T14:42:19;7.07;;;3.43;;
19828;SDS011;10075;50.924;4.396;2022-11-20T14:44:47;5.83;;;4.27;;
19828;SDS011;10075;50.924;4.396;2022-11-20T14:47:17;8.63;;;5.30;;
19828;SDS011;10075;50.924;4.396;2022-11-20T14:49:47;6.40;;;5.00;;
19828;SDS011;10075;50.924;4.396;2022-11-20T14:52:16;8.67;;;5.27;;
19828;SDS011;10075;50.924;4.396;2022-11-20T14:54:44;9.43;;;6.37;;
19828;SDS011;10075;50.924;4.396;2022-11-20T14:57:22;8.17;;;6.20;;